sensor_id;sensor_type;location;lat;lon;timestamp;P1;durP1;ratioP1;P2;durP2;ratioP2
10418;SDS011;5256;48.728;9.140;2023-04-06T00:01:02;1.00;;;1.00;;
10418;SDS011;5256;48.728;9.140;2023-04-06T00:03:28;1.00;;;1.00;;
10418;SDS011;5256;48.728;9.140;2023-04-06T00:05:54;1.03;;;1.03;;
10418;SDS011;5256;48.728;9.140;2023-04-06T00:08:20;0.90;;;0.90;;
10418;SDS011;5256;48.728;9.140;2023-04-06T00:10:47;1.00;;;1.00;;
10418;SDS011;5256;48.728;9.140;2023-04-06T00:13:12;1.00;;;1.00;;
10418;SDS011;5256;48.728;9.140;2023-04-06T00:15:38;1.10;;;1.10;;
10418;SDS011;5256;48.728;9.140;2023-04-06T00:18:03;1.10;;;1.10;;
10418;SDS011;5256;48.728;9.140;2023-04-06T00:20:29;1.10;;;1.10;;
10418;SDS011;5256;48.728;9.140;2023-04-06T00:22:55;1.10;;;1.10;;
10418;SDS011;5256;48.728;9.140;2023-04-06T00:25:20;1.00;;;1.00;;
10418;SDS011;5256;48.728;9.140;2023-04-06T00:27:46;1.00;;;1.00;;
10418;SDS011;5256;48.728;9.140;2023-04-06T00:30:12;0.90;;;0.90;;
10418;SDS011;5256;48.728;9.140;2023-04-06T00:32:37;1.00;;;1.00;;
10418;SDS011;5256;48.728;9.140;2023-04-06T00:35:03;1.00;;;1.00;;
10418;SDS011;5256;48.728;9.140;2023-04-06T00:37:29;0.90;;;0.90;;
10418;SDS011;5256;48.728;9.140;2023-04-06T00:39:55;1.00;;;1.00;;
10418;SDS011;5256;48.728;9.140;2023-04-06T00:42:21;1.00;;;1.00;;
10418;SDS011;5256;48.728;9.140;2023-04-06T00:44:52;0.90;;;0.90;;
10418;SDS011;5256;48.728;9.140;2023-04-06T00:47:22;1.00;;;1.00;;
10418;SDS011;5256;48.728;9.140;2023-04-06T00:49:49;1.10;;;1.10;;
10418;SDS011;5256;48.728;9.140;2023-04-06T00:52:15;1.00;;;1.00;;
10418;SDS011;5256;48.728;9.140;2023-04-06T00:54:41;1.00;;;1.00;;
10418;SDS011;5256;48.728;9.140;2023-04-06T00:57:07;1.00;;;1.00;;
10418;SDS011;5256;48.728;9.140;2023-04-06T00:59:33;1.03;;;1.03;;
10418;SDS011;5256;48.728;9.140;2023-04-06T01:01:59;1.10;;;1.10;;
10418;SDS011;5256;48.728;9.140;2023-04-06T01:04:24;1.10;;;1.10;;
10418;SDS011;5256;48.728;9.140;2023-04-06T01:06:51;1.10;;;1.10;;
10418;SDS011;5256;48.728;9.140;2023-04-06T01:09:17;1.00;;;1.00;;
10418;SDS011;5256;48.728;9.140;2023-04-06T01:11:42;1.10;;;1.10;;
10418;SDS011;5256;48.728;9.140;2023-04-06T01:14:08;1.07;;;1.07;;
10418;SDS011;5256;48.728;9.140;2023-04-06T01:16:34;1.00;;;1.00;;
10418;SDS011;5256;48.728;9.140;2023-04-06T01:19:01;1.10;;;1.10;;
10418;SDS011;5256;48.728;9.140;2023-04-06T01:21:32;1.00;;;1.00;;
10418;SDS011;5256;48.728;9.140;2023-04-06T01:23:58;1.00;;;1.00;;
10418;SDS011;5256;48.728;9.140;2023-04-06T01:26:23;1.10;;;1.10;;
10418;SDS011;5256;48.728;9.140;2023-04-06T01:28:49;1.00;;;1.00;;
10418;SDS011;5256;48.728;9.140;2023-04-06T01:31:15;1.00;;;1.00;;
10418;SDS011;5256;48.728;9.140;2023-04-06T01:33:40;1.10;;;1.10;;
10418;SDS011;5256;48.728;9.140;2023-04-06T01:36:06;1.00;;;1.00;;
10418;SDS011;5256;48.728;9.140;2023-04-06T01:38:32;1.10;;;1.10;;
10418;SDS011;5256;48.728;9.140;2023-04-06T01:40:57;1.00;;;1.00;;
10418;SDS011;5256;48.728;9.140;2023-04-06T01:43:23;1.10;;;1.10;;
10418;SDS011;5256;48.728;9.140;2023-04-06T01:45:49;1.10;;;1.10;;
10418;SDS011;5256;48.728;9.140;2023-04-06T01:48:14;1.10;;;1.10;;
10418;SDS011;5256;48.728;9.140;2023-04-06T01:50:40;0.97;;;0.97;;
10418;SDS011;5256;48.728;9.140;2023-04-06T01:53:06;1.00;;;1.00;;
10418;SDS011;5256;48.728;9.140;2023-04-06T01:55:31;1.00;;;1.00;;
10418;SDS011;5256;48.728;9.140;2023-04-06T01:57:57;1.10;;;1.10;;
10418;SDS011;5256;48.728;9.140;2023-04-06T02:00:22;1.00;;;1.00;;
10418;SDS011;5256;48.728;9.140;2023-04-06T02:02:48;1.10;;;1.10;;
10418;SDS011;5256;48.728;9.140;2023-04-06T02:05:13;1.20;;;1.20;;
10418;SDS011;5256;48.728;9.140;2023-04-06T02:07:39;1.10;;;1.10;;
10418;SDS011;5256;48.728;9.140;2023-04-06T02:10:10;1.20;;;1.20;;
10418;SDS011;5256;48.728;9.140;2023-04-06T02:12:37;1.20;;;1.20;;
10418;SDS011;5256;48.728;9.140;2023-04-06T02:15:02;1.20;;;1.20;;
10418;SDS011;5256;48.728;9.140;2023-04-06T02:17:28;1.00;;;1.00;;
10418;SDS011;5256;48.728;9.140;2023-04-06T02:19:54;1.10;;;1.10;;
10418;SDS011;5256;48.728;9.140;2023-04-06T02:22:20;1.10;;;1.10;;
10418;SDS011;5256;48.728;9.140;2023-04-06T02:24:45;1.10;;;1.10;;
10418;SDS011;5256;48.728;9.140;2023-04-06T02:27:11;1.07;;;1.07;;
10418;SDS011;5256;48.728;9.140;2023-04-06T02:29:38;1.30;;;1.30;;
10418;SDS011;5256;48.728;9.140;2023-04-06T02:32:04;1.20;;;1.20;;
10418;SDS011;5256;48.728;9.140;2023-04-06T02:34:30;1.20;;;1.20;;
10418;SDS011;5256;48.728;9.140;2023-04-06T02:36:55;1.10;;;1.10;;
10418;SDS011;5256;48.728;9.140;2023-04-06T02:39:21;1.20;;;1.20;;
10418;SDS011;5256;48.728;9.140;2023-04-06T02:41:47;1.20;;;1.20;;
10418;SDS011;5256;48.728;9.140;2023-04-06T02:44:13;1.10;;;1.10;;
10418;SDS011;5256;48.728;9.140;2023-04-06T02:46:38;1.10;;;1.10;;
10418;SDS011;5256;48.728;9.140;2023-04-06T02:49:04;1.10;;;1.10;;
10418;SDS011;5256;48.728;9.140;2023-04-06T02:51:30;1.10;;;1.10;;
10418;SDS011;5256;48.728;9.140;2023-04-06T02:53:56;1.10;;;1.10;;
10418;SDS011;5256;48.728;9.140;2023-04-06T02:56:22;1.20;;;1.20;;
10418;SDS011;5256;48.728;9.140;2023-04-06T02:58:47;1.20;;;1.20;;
10418;SDS011;5256;48.728;9.140;2023-04-06T03:01:13;1.10;;;1.10;;
10418;SDS011;5256;48.728;9.140;2023-04-06T03:03:38;1.10;;;1.10;;
10418;SDS011;5256;48.728;9.140;2023-04-06T03:06:04;1.10;;;1.10;;
10418;SDS011;5256;48.728;9.140;2023-04-06T03:08:30;1.10;;;1.10;;
10418;SDS011;5256;48.728;9.140;2023-04-06T03:10:55;1.10;;;1.10;;
10418;SDS011;5256;48.728;9.140;2023-04-06T03:13:21;1.20;;;1.20;;
10418;SDS011;5256;48.728;9.140;2023-04-06T03:15:46;1.13;;;1.13;;
10418;SDS011;5256;48.728;9.140;2023-04-06T03:18:12;1.10;;;1.10;;
10418;SDS011;5256;48.728;9.140;2023-04-06T03:20:38;1.10;;;1.10;;
10418;SDS011;5256;48.728;9.140;2023-04-06T03:23:03;1.10;;;1.10;;
10418;SDS011;5256;48.728;9.140;2023-04-06T03:25:29;1.10;;;1.10;;
10418;SDS011;5256;48.728;9.140;2023-04-06T03:27:57;1.17;;;1.17;;
10418;SDS011;5256;48.728;9.140;2023-04-06T03:30:23;1.20;;;1.20;;
10418;SDS011;5256;48.728;9.140;2023-04-06T03:32:48;1.10;;;1.10;;
10418;SDS011;5256;48.728;9.140;2023-04-06T03:35:14;1.20;;;1.20;;
10418;SDS011;5256;48.728;9.140;2023-04-06T03:37:40;1.10;;;1.10;;
10418;SDS011;5256;48.728;9.140;2023-04-06T03:40:05;1.00;;;1.00;;
10418;SDS011;5256;48.728;9.140;2023-04-06T03:42:31;1.10;;;1.10;;
10418;SDS011;5256;48.728;9.140;2023-04-06T03:44:57;1.10;;;1.10;;
10418;SDS011;5256;48.728;9.140;2023-04-06T03:47:23;1.20;;;1.20;;
10418;SDS011;5256;48.728;9.140;2023-04-06T03:49:49;1.10;;;1.10;;
10418;SDS011;5256;48.728;9.140;2023-04-06T03:52:15;1.10;;;1.10;;
10418;SDS011;5256;48.728;9.140;2023-04-06T03:54:41;1.00;;;1.00;;
10418;SDS011;5256;48.728;9.140;2023-04-06T03:57:06;1.10;;;1.10;;
10418;SDS011;5256;48.728;9.140;2023-04-06T03:59:32;1.10;;;1.10;;
10418;SDS011;5256;48.728;9.140;2023-04-06T04:01:57;1.10;;;1.10;;
10418;SDS011;5256;48.728;9.140;2023-04-06T04:04:23;1.20;;;1.20;;
10418;SDS011;5256;48.728;9.140;2023-04-06T04:06:48;1.10;;;1.10;;
10418;SDS011;5256;48.728;9.140;2023-04-06T04:09:14;1.10;;;1.10;;
10418;SDS011;5256;48.728;9.140;2023-04-06T04:11:40;1.00;;;1.00;;
10418;SDS011;5256;48.728;9.140;2023-04-06T04:14:06;1.00;;;1.00;;
10418;SDS011;5256;48.728;9.140;2023-04-06T04:16:31;1.10;;;1.10;;
10418;SDS011;5256;48.728;9.140;2023-04-06T04:18:57;1.10;;;1.10;;
10418;SDS011;5256;48.728;9.140;2023-04-06T04:21:27;1.00;;;1.00;;
10418;SDS011;5256;48.728;9.140;2023-04-06T04:23:55;1.10;;;1.10;;
10418;SDS011;5256;48.728;9.140;2023-04-06T04:26:20;1.10;;;1.10;;
10418;SDS011;5256;48.728;9.140;2023-04-06T04:28:46;1.10;;;1.10;;
10418;SDS011;5256;48.728;9.140;2023-04-06T04:31:12;1.00;;;1.00;;
10418;SDS011;5256;48.728;9.140;2023-04-06T04:33:37;1.20;;;1.20;;
10418;SDS011;5256;48.728;9.140;2023-04-06T04:36:03;1.00;;;1.00;;
10418;SDS011;5256;48.728;9.140;2023-04-06T04:38:29;1.10;;;1.10;;
10418;SDS011;5256;48.728;9.140;2023-04-06T04:40:54;1.10;;;1.10;;
10418;SDS011;5256;48.728;9.140;2023-04-06T04:43:20;1.10;;;1.10;;
10418;SDS011;5256;48.728;9.140;2023-04-06T04:45:46;1.10;;;1.10;;
10418;SDS011;5256;48.728;9.140;2023-04-06T04:48:11;1.10;;;1.10;;
10418;SDS011;5256;48.728;9.140;2023-04-06T04:50:37;1.10;;;1.10;;
10418;SDS011;5256;48.728;9.140;2023-04-06T04:53:03;1.00;;;1.00;;
10418;SDS011;5256;48.728;9.140;2023-04-06T04:55:31;1.13;;;1.13;;
10418;SDS011;5256;48.728;9.140;2023-04-06T04:57:56;1.10;;;1.10;;
10418;SDS011;5256;48.728;9.140;2023-04-06T05:00:22;1.20;;;1.20;;
10418;SDS011;5256;48.728;9.140;2023-04-06T05:02:48;1.20;;;1.20;;
10418;SDS011;5256;48.728;9.140;2023-04-06T05:05:13;1.20;;;1.20;;
10418;SDS011;5256;48.728;9.140;2023-04-06T05:07:39;1.10;;;1.10;;
10418;SDS011;5256;48.728;9.140;2023-04-06T05:10:05;1.10;;;1.10;;
10418;SDS011;5256;48.728;9.140;2023-04-06T05:12:31;1.10;;;1.10;;
10418;SDS011;5256;48.728;9.140;2023-04-06T05:14:57;1.20;;;1.20;;
10418;SDS011;5256;48.728;9.140;2023-04-06T05:17:22;1.10;;;1.10;;
10418;SDS011;5256;48.728;9.140;2023-04-06T05:19:48;1.10;;;1.10;;
10418;SDS011;5256;48.728;9.140;2023-04-06T05:22:13;1.10;;;1.10;;
10418;SDS011;5256;48.728;9.140;2023-04-06T05:24:42;1.10;;;1.10;;
10418;SDS011;5256;48.728;9.140;2023-04-06T05:27:08;1.20;;;1.20;;
10418;SDS011;5256;48.728;9.140;2023-04-06T05:29:34;1.10;;;1.10;;
10418;SDS011;5256;48.728;9.140;2023-04-06T05:31:59;1.10;;;1.10;;
10418;SDS011;5256;48.728;9.140;2023-04-06T05:34:25;1.10;;;1.10;;
10418;SDS011;5256;48.728;9.140;2023-04-06T05:36:51;1.00;;;1.00;;
10418;SDS011;5256;48.728;9.140;2023-04-06T05:39:17;1.00;;;1.00;;
10418;SDS011;5256;48.728;9.140;2023-04-06T05:41:42;1.10;;;1.10;;
10418;SDS011;5256;48.728;9.140;2023-04-06T05:44:08;1.00;;;1.00;;
10418;SDS011;5256;48.728;9.140;2023-04-06T05:46:33;1.10;;;1.10;;
10418;SDS011;5256;48.728;9.140;2023-04-06T05:48:59;1.00;;;1.00;;
10418;SDS011;5256;48.728;9.140;2023-04-06T05:51:25;0.90;;;0.90;;
10418;SDS011;5256;48.728;9.140;2023-04-06T05:53:51;1.00;;;1.00;;
10418;SDS011;5256;48.728;9.140;2023-04-06T05:56:17;1.10;;;1.10;;
10418;SDS011;5256;48.728;9.140;2023-04-06T05:58:42;1.00;;;1.00;;
10418;SDS011;5256;48.728;9.140;2023-04-06T06:01:08;1.00;;;1.00;;
10418;SDS011;5256;48.728;9.140;2023-04-06T06:03:34;1.00;;;1.00;;
10418;SDS011;5256;48.728;9.140;2023-04-06T06:06:01;1.00;;;1.00;;
10418;SDS011;5256;48.728;9.140;2023-04-06T06:08:30;0.90;;;0.90;;
10418;SDS011;5256;48.728;9.140;2023-04-06T06:10:56;0.90;;;0.90;;
10418;SDS011;5256;48.728;9.140;2023-04-06T06:13:22;0.90;;;0.90;;
10418;SDS011;5256;48.728;9.140;2023-04-06T06:15:48;0.90;;;0.90;;
10418;SDS011;5256;48.728;9.140;2023-04-06T06:18:14;1.00;;;1.00;;
10418;SDS011;5256;48.728;9.140;2023-04-06T06:20:40;0.80;;;0.80;;
10418;SDS011;5256;48.728;9.140;2023-04-06T06:23:06;0.80;;;0.80;;
10418;SDS011;5256;48.728;9.140;2023-04-06T06:25:31;0.80;;;0.80;;
10418;SDS011;5256;48.728;9.140;2023-04-06T06:27:58;0.80;;;0.80;;
10418;SDS011;5256;48.728;9.140;2023-04-06T06:30:24;0.90;;;0.90;;
10418;SDS011;5256;48.728;9.140;2023-04-06T06:32:50;0.90;;;0.90;;
10418;SDS011;5256;48.728;9.140;2023-04-06T06:35:16;0.90;;;0.90;;
10418;SDS011;5256;48.728;9.140;2023-04-06T06:37:42;0.80;;;0.80;;
10418;SDS011;5256;48.728;9.140;2023-04-06T06:40:08;0.80;;;0.80;;
10418;SDS011;5256;48.728;9.140;2023-04-06T06:42:35;0.80;;;0.80;;
10418;SDS011;5256;48.728;9.140;2023-04-06T06:45:01;0.70;;;0.70;;
10418;SDS011;5256;48.728;9.140;2023-04-06T06:47:27;0.80;;;0.80;;
10418;SDS011;5256;48.728;9.140;2023-04-06T06:49:52;0.80;;;0.80;;
10418;SDS011;5256;48.728;9.140;2023-04-06T06:52:18;0.80;;;0.80;;
10418;SDS011;5256;48.728;9.140;2023-04-06T06:54:44;0.70;;;0.70;;
10418;SDS011;5256;48.728;9.140;2023-04-06T06:57:09;0.70;;;0.70;;
10418;SDS011;5256;48.728;9.140;2023-04-06T06:59:35;0.70;;;0.70;;
10418;SDS011;5256;48.728;9.140;2023-04-06T07:02:01;0.77;;;0.77;;
10418;SDS011;5256;48.728;9.140;2023-04-06T07:04:26;0.80;;;0.80;;
10418;SDS011;5256;48.728;9.140;2023-04-06T07:06:52;0.60;;;0.60;;
10418;SDS011;5256;48.728;9.140;2023-04-06T07:09:18;0.60;;;0.60;;
10418;SDS011;5256;48.728;9.140;2023-04-06T07:11:44;0.60;;;0.60;;
10418;SDS011;5256;48.728;9.140;2023-04-06T07:14:09;0.57;;;0.57;;
10418;SDS011;5256;48.728;9.140;2023-04-06T07:16:36;0.60;;;0.60;;
10418;SDS011;5256;48.728;9.140;2023-04-06T07:19:02;0.50;;;0.50;;
10418;SDS011;5256;48.728;9.140;2023-04-06T07:21:28;0.53;;;0.53;;
10418;SDS011;5256;48.728;9.140;2023-04-06T07:23:53;0.60;;;0.60;;
10418;SDS011;5256;48.728;9.140;2023-04-06T07:26:19;0.50;;;0.50;;
10418;SDS011;5256;48.728;9.140;2023-04-06T07:28:45;0.77;;;0.77;;
10418;SDS011;5256;48.728;9.140;2023-04-06T07:31:10;0.50;;;0.50;;
10418;SDS011;5256;48.728;9.140;2023-04-06T07:33:36;0.50;;;0.50;;
10418;SDS011;5256;48.728;9.140;2023-04-06T07:36:02;0.50;;;0.50;;
10418;SDS011;5256;48.728;9.140;2023-04-06T07:38:28;0.60;;;0.60;;
10418;SDS011;5256;48.728;9.140;2023-04-06T07:40:53;0.70;;;0.70;;
10418;SDS011;5256;48.728;9.140;2023-04-06T07:43:19;0.50;;;0.50;;
10418;SDS011;5256;48.728;9.140;2023-04-06T07:45:45;0.50;;;0.50;;
10418;SDS011;5256;48.728;9.140;2023-04-06T07:48:10;0.50;;;0.50;;
10418;SDS011;5256;48.728;9.140;2023-04-06T07:50:36;0.50;;;0.50;;
10418;SDS011;5256;48.728;9.140;2023-04-06T07:53:02;0.40;;;0.40;;
10418;SDS011;5256;48.728;9.140;2023-04-06T07:55:27;0.50;;;0.50;;
10418;SDS011;5256;48.728;9.140;2023-04-06T07:57:53;0.40;;;0.40;;
10418;SDS011;5256;48.728;9.140;2023-04-06T08:00:19;0.53;;;0.53;;
10418;SDS011;5256;48.728;9.140;2023-04-06T08:02:45;0.40;;;0.40;;
10418;SDS011;5256;48.728;9.140;2023-04-06T08:05:10;0.40;;;0.40;;
10418;SDS011;5256;48.728;9.140;2023-04-06T08:07:36;0.50;;;0.50;;
10418;SDS011;5256;48.728;9.140;2023-04-06T08:10:02;0.40;;;0.40;;
10418;SDS011;5256;48.728;9.140;2023-04-06T08:12:28;0.40;;;0.40;;
10418;SDS011;5256;48.728;9.140;2023-04-06T08:14:54;0.40;;;0.40;;
10418;SDS011;5256;48.728;9.140;2023-04-06T08:17:19;0.50;;;0.50;;
10418;SDS011;5256;48.728;9.140;2023-04-06T08:19:45;0.50;;;0.50;;
10418;SDS011;5256;48.728;9.140;2023-04-06T08:22:11;0.60;;;0.60;;
10418;SDS011;5256;48.728;9.140;2023-04-06T08:24:37;0.50;;;0.50;;
10418;SDS011;5256;48.728;9.140;2023-04-06T08:27:02;0.30;;;0.30;;
10418;SDS011;5256;48.728;9.140;2023-04-06T08:29:28;0.30;;;0.30;;
10418;SDS011;5256;48.728;9.140;2023-04-06T08:31:54;0.47;;;0.47;;
10418;SDS011;5256;48.728;9.140;2023-04-06T08:34:20;0.40;;;0.40;;
10418;SDS011;5256;48.728;9.140;2023-04-06T08:36:46;0.37;;;0.37;;
10418;SDS011;5256;48.728;9.140;2023-04-06T08:39:12;0.33;;;0.33;;
10418;SDS011;5256;48.728;9.140;2023-04-06T08:41:37;0.50;;;0.50;;
10418;SDS011;5256;48.728;9.140;2023-04-06T08:44:03;0.40;;;0.40;;
10418;SDS011;5256;48.728;9.140;2023-04-06T08:46:30;0.47;;;0.47;;
10418;SDS011;5256;48.728;9.140;2023-04-06T08:48:56;0.40;;;0.40;;
10418;SDS011;5256;48.728;9.140;2023-04-06T08:51:23;0.40;;;0.40;;
10418;SDS011;5256;48.728;9.140;2023-04-06T08:53:56;0.30;;;0.30;;
10418;SDS011;5256;48.728;9.140;2023-04-06T08:56:22;0.40;;;0.40;;
10418;SDS011;5256;48.728;9.140;2023-04-06T08:58:50;0.40;;;0.40;;
10418;SDS011;5256;48.728;9.140;2023-04-06T09:01:17;0.40;;;0.40;;
10418;SDS011;5256;48.728;9.140;2023-04-06T09:03:45;0.30;;;0.30;;
10418;SDS011;5256;48.728;9.140;2023-04-06T09:06:13;0.30;;;0.30;;
10418;SDS011;5256;48.728;9.140;2023-04-06T09:08:40;0.47;;;0.47;;
10418;SDS011;5256;48.728;9.140;2023-04-06T09:11:06;0.40;;;0.40;;
10418;SDS011;5256;48.728;9.140;2023-04-06T09:13:45;0.40;;;0.40;;
10418;SDS011;5256;48.728;9.140;2023-04-06T09:16:15;0.47;;;0.47;;
10418;SDS011;5256;48.728;9.140;2023-04-06T09:18:41;0.50;;;0.50;;
10418;SDS011;5256;48.728;9.140;2023-04-06T09:21:08;0.30;;;0.30;;
10418;SDS011;5256;48.728;9.140;2023-04-06T09:23:34;0.40;;;0.40;;
10418;SDS011;5256;48.728;9.140;2023-04-06T09:26:07;0.37;;;0.37;;
10418;SDS011;5256;48.728;9.140;2023-04-06T09:28:44;0.40;;;0.40;;
10418;SDS011;5256;48.728;9.140;2023-04-06T09:31:24;0.30;;;0.30;;
10418;SDS011;5256;48.728;9.140;2023-04-06T09:33:54;0.40;;;0.40;;
10418;SDS011;5256;48.728;9.140;2023-04-06T09:36:31;0.30;;;0.30;;
10418;SDS011;5256;48.728;9.140;2023-04-06T09:38:58;0.30;;;0.30;;
10418;SDS011;5256;48.728;9.140;2023-04-06T09:41:26;0.40;;;0.40;;
10418;SDS011;5256;48.728;9.140;2023-04-06T09:44:01;0.30;;;0.30;;
10418;SDS011;5256;48.728;9.140;2023-04-06T09:46:41;0.40;;;0.40;;
10418;SDS011;5256;48.728;9.140;2023-04-06T09:49:08;0.40;;;0.40;;
10418;SDS011;5256;48.728;9.140;2023-04-06T09:54:07;0.40;;;0.40;;
10418;SDS011;5256;48.728;9.140;2023-04-06T09:56:37;0.30;;;0.30;;
10418;SDS011;5256;48.728;9.140;2023-04-06T09:59:12;0.37;;;0.37;;
10418;SDS011;5256;48.728;9.140;2023-04-06T10:01:42;0.50;;;0.50;;
10418;SDS011;5256;48.728;9.140;2023-04-06T10:04:30;0.40;;;0.40;;
10418;SDS011;5256;48.728;9.140;2023-04-06T10:06:57;0.40;;;0.40;;
10418;SDS011;5256;48.728;9.140;2023-04-06T10:09:25;0.30;;;0.30;;
10418;SDS011;5256;48.728;9.140;2023-04-06T10:11:54;0.50;;;0.50;;
10418;SDS011;5256;48.728;9.140;2023-04-06T10:14:23;0.40;;;0.40;;
10418;SDS011;5256;48.728;9.140;2023-04-06T10:16:48;0.40;;;0.40;;
10418;SDS011;5256;48.728;9.140;2023-04-06T10:19:16;0.50;;;0.50;;
10418;SDS011;5256;48.728;9.140;2023-04-06T10:21:48;0.40;;;0.40;;
10418;SDS011;5256;48.728;9.140;2023-04-06T10:24:19;0.40;;;0.40;;
10418;SDS011;5256;48.728;9.140;2023-04-06T10:26:58;0.40;;;0.40;;
10418;SDS011;5256;48.728;9.140;2023-04-06T10:29:26;0.50;;;0.50;;
10418;SDS011;5256;48.728;9.140;2023-04-06T10:31:52;0.50;;;0.50;;
10418;SDS011;5256;48.728;9.140;2023-04-06T10:34:18;0.40;;;0.40;;
10418;SDS011;5256;48.728;9.140;2023-04-06T10:36:43;0.40;;;0.40;;
10418;SDS011;5256;48.728;9.140;2023-04-06T10:39:09;0.50;;;0.50;;
10418;SDS011;5256;48.728;9.140;2023-04-06T10:41:42;0.40;;;0.40;;
10418;SDS011;5256;48.728;9.140;2023-04-06T10:44:22;0.40;;;0.40;;
10418;SDS011;5256;48.728;9.140;2023-04-06T10:46:52;0.50;;;0.50;;
10418;SDS011;5256;48.728;9.140;2023-04-06T10:49:19;0.40;;;0.40;;
10418;SDS011;5256;48.728;9.140;2023-04-06T10:51:50;0.40;;;0.40;;
10418;SDS011;5256;48.728;9.140;2023-04-06T10:54:17;0.50;;;0.50;;
10418;SDS011;5256;48.728;9.140;2023-04-06T10:56:44;0.50;;;0.50;;
10418;SDS011;5256;48.728;9.140;2023-04-06T10:59:09;0.50;;;0.50;;
10418;SDS011;5256;48.728;9.140;2023-04-06T11:01:36;0.47;;;0.47;;
10418;SDS011;5256;48.728;9.140;2023-04-06T11:04:02;0.40;;;0.40;;
10418;SDS011;5256;48.728;9.140;2023-04-06T11:06:28;0.50;;;0.50;;
10418;SDS011;5256;48.728;9.140;2023-04-06T11:08:56;0.50;;;0.50;;
10418;SDS011;5256;48.728;9.140;2023-04-06T11:11:23;0.50;;;0.50;;
10418;SDS011;5256;48.728;9.140;2023-04-06T11:16:21;0.40;;;0.40;;
10418;SDS011;5256;48.728;9.140;2023-04-06T11:18:49;0.40;;;0.40;;
10418;SDS011;5256;48.728;9.140;2023-04-06T11:21:16;0.60;;;0.60;;
10418;SDS011;5256;48.728;9.140;2023-04-06T11:23:42;0.50;;;0.50;;
10418;SDS011;5256;48.728;9.140;2023-04-06T11:26:11;0.60;;;0.60;;
10418;SDS011;5256;48.728;9.140;2023-04-06T11:28:39;0.50;;;0.50;;
10418;SDS011;5256;48.728;9.140;2023-04-06T11:31:07;0.43;;;0.43;;
10418;SDS011;5256;48.728;9.140;2023-04-06T11:33:38;0.40;;;0.40;;
10418;SDS011;5256;48.728;9.140;2023-04-06T11:36:04;0.50;;;0.50;;
10418;SDS011;5256;48.728;9.140;2023-04-06T11:38:31;0.50;;;0.50;;
10418;SDS011;5256;48.728;9.140;2023-04-06T11:40:57;0.57;;;0.57;;
10418;SDS011;5256;48.728;9.140;2023-04-06T11:43:27;0.40;;;0.40;;
10418;SDS011;5256;48.728;9.140;2023-04-06T11:45:59;0.50;;;0.50;;
10418;SDS011;5256;48.728;9.140;2023-04-06T11:48:27;0.53;;;0.53;;
10418;SDS011;5256;48.728;9.140;2023-04-06T11:50:57;0.40;;;0.40;;
10418;SDS011;5256;48.728;9.140;2023-04-06T11:53:23;0.40;;;0.40;;
10418;SDS011;5256;48.728;9.140;2023-04-06T11:55:49;0.40;;;0.40;;
10418;SDS011;5256;48.728;9.140;2023-04-06T11:58:15;0.57;;;0.57;;
10418;SDS011;5256;48.728;9.140;2023-04-06T12:00:41;0.40;;;0.40;;
10418;SDS011;5256;48.728;9.140;2023-04-06T12:03:10;0.53;;;0.53;;
10418;SDS011;5256;48.728;9.140;2023-04-06T12:05:37;0.50;;;0.50;;
10418;SDS011;5256;48.728;9.140;2023-04-06T12:08:03;0.70;;;0.70;;
10418;SDS011;5256;48.728;9.140;2023-04-06T12:10:28;0.50;;;0.50;;
10418;SDS011;5256;48.728;9.140;2023-04-06T12:12:54;0.50;;;0.50;;
10418;SDS011;5256;48.728;9.140;2023-04-06T12:15:20;0.30;;;0.30;;
10418;SDS011;5256;48.728;9.140;2023-04-06T12:17:46;0.50;;;0.50;;
10418;SDS011;5256;48.728;9.140;2023-04-06T12:20:12;0.47;;;0.47;;
10418;SDS011;5256;48.728;9.140;2023-04-06T12:22:38;0.50;;;0.50;;
10418;SDS011;5256;48.728;9.140;2023-04-06T12:25:04;0.50;;;0.50;;
10418;SDS011;5256;48.728;9.140;2023-04-06T12:27:31;0.40;;;0.40;;
10418;SDS011;5256;48.728;9.140;2023-04-06T12:29:57;0.40;;;0.40;;
10418;SDS011;5256;48.728;9.140;2023-04-06T12:32:23;0.50;;;0.50;;
10418;SDS011;5256;48.728;9.140;2023-04-06T12:34:50;0.50;;;0.50;;
10418;SDS011;5256;48.728;9.140;2023-04-06T12:37:17;0.40;;;0.40;;
10418;SDS011;5256;48.728;9.140;2023-04-06T12:39:43;0.50;;;0.50;;
10418;SDS011;5256;48.728;9.140;2023-04-06T12:42:10;0.50;;;0.50;;
10418;SDS011;5256;48.728;9.140;2023-04-06T12:44:35;0.53;;;0.53;;
10418;SDS011;5256;48.728;9.140;2023-04-06T12:47:01;0.50;;;0.50;;
10418;SDS011;5256;48.728;9.140;2023-04-06T12:49:28;0.30;;;0.30;;
10418;SDS011;5256;48.728;9.140;2023-04-06T12:51:54;0.40;;;0.40;;
10418;SDS011;5256;48.728;9.140;2023-04-06T12:54:20;0.40;;;0.40;;
10418;SDS011;5256;48.728;9.140;2023-04-06T12:56:46;0.47;;;0.47;;
10418;SDS011;5256;48.728;9.140;2023-04-06T12:59:11;0.53;;;0.53;;
10418;SDS011;5256;48.728;9.140;2023-04-06T13:01:37;0.50;;;0.50;;
10418;SDS011;5256;48.728;9.140;2023-04-06T13:04:03;0.40;;;0.40;;
10418;SDS011;5256;48.728;9.140;2023-04-06T13:06:28;0.40;;;0.40;;
10418;SDS011;5256;48.728;9.140;2023-04-06T13:08:55;0.50;;;0.50;;
10418;SDS011;5256;48.728;9.140;2023-04-06T13:11:20;0.40;;;0.40;;
10418;SDS011;5256;48.728;9.140;2023-04-06T13:13:48;0.40;;;0.40;;
10418;SDS011;5256;48.728;9.140;2023-04-06T13:16:14;0.40;;;0.40;;
10418;SDS011;5256;48.728;9.140;2023-04-06T13:18:40;0.47;;;0.47;;
10418;SDS011;5256;48.728;9.140;2023-04-06T13:21:06;0.50;;;0.50;;
10418;SDS011;5256;48.728;9.140;2023-04-06T13:23:32;0.40;;;0.40;;
10418;SDS011;5256;48.728;9.140;2023-04-06T13:26:06;0.40;;;0.40;;
10418;SDS011;5256;48.728;9.140;2023-04-06T13:28:32;0.60;;;0.60;;
10418;SDS011;5256;48.728;9.140;2023-04-06T13:30:59;0.30;;;0.30;;
10418;SDS011;5256;48.728;9.140;2023-04-06T13:33:26;0.40;;;0.40;;
10418;SDS011;5256;48.728;9.140;2023-04-06T13:35:52;0.40;;;0.40;;
10418;SDS011;5256;48.728;9.140;2023-04-06T13:38:18;0.40;;;0.40;;
10418;SDS011;5256;48.728;9.140;2023-04-06T13:40:44;0.30;;;0.30;;
10418;SDS011;5256;48.728;9.140;2023-04-06T13:43:10;0.40;;;0.40;;
10418;SDS011;5256;48.728;9.140;2023-04-06T13:45:36;0.50;;;0.50;;
10418;SDS011;5256;48.728;9.140;2023-04-06T13:48:02;0.40;;;0.40;;
10418;SDS011;5256;48.728;9.140;2023-04-06T13:50:28;0.50;;;0.50;;
10418;SDS011;5256;48.728;9.140;2023-04-06T13:52:53;0.43;;;0.43;;
10418;SDS011;5256;48.728;9.140;2023-04-06T13:55:20;0.40;;;0.40;;
10418;SDS011;5256;48.728;9.140;2023-04-06T13:57:45;0.40;;;0.40;;
10418;SDS011;5256;48.728;9.140;2023-04-06T14:00:11;0.40;;;0.40;;
10418;SDS011;5256;48.728;9.140;2023-04-06T14:02:38;0.40;;;0.40;;
10418;SDS011;5256;48.728;9.140;2023-04-06T14:05:04;0.47;;;0.47;;
10418;SDS011;5256;48.728;9.140;2023-04-06T14:07:30;0.40;;;0.40;;
10418;SDS011;5256;48.728;9.140;2023-04-06T14:09:56;0.50;;;0.50;;
10418;SDS011;5256;48.728;9.140;2023-04-06T14:12:22;0.30;;;0.30;;
10418;SDS011;5256;48.728;9.140;2023-04-06T14:14:47;0.50;;;0.50;;
10418;SDS011;5256;48.728;9.140;2023-04-06T14:17:13;0.40;;;0.40;;
10418;SDS011;5256;48.728;9.140;2023-04-06T14:19:39;0.50;;;0.50;;
10418;SDS011;5256;48.728;9.140;2023-04-06T14:22:04;0.43;;;0.43;;
10418;SDS011;5256;48.728;9.140;2023-04-06T14:24:30;0.53;;;0.53;;
10418;SDS011;5256;48.728;9.140;2023-04-06T14:26:56;0.40;;;0.40;;
10418;SDS011;5256;48.728;9.140;2023-04-06T14:29:22;0.40;;;0.40;;
10418;SDS011;5256;48.728;9.140;2023-04-06T14:31:48;0.40;;;0.40;;
10418;SDS011;5256;48.728;9.140;2023-04-06T14:34:14;0.40;;;0.40;;
10418;SDS011;5256;48.728;9.140;2023-04-06T14:36:41;0.30;;;0.30;;
10418;SDS011;5256;48.728;9.140;2023-04-06T14:39:07;0.40;;;0.40;;
10418;SDS011;5256;48.728;9.140;2023-04-06T14:41:33;0.40;;;0.40;;
10418;SDS011;5256;48.728;9.140;2023-04-06T14:44:00;0.40;;;0.40;;
10418;SDS011;5256;48.728;9.140;2023-04-06T14:46:26;0.30;;;0.30;;
10418;SDS011;5256;48.728;9.140;2023-04-06T14:48:53;0.50;;;0.50;;
10418;SDS011;5256;48.728;9.140;2023-04-06T14:51:20;0.30;;;0.30;;
10418;SDS011;5256;48.728;9.140;2023-04-06T14:53:46;0.30;;;0.30;;
10418;SDS011;5256;48.728;9.140;2023-04-06T14:56:11;0.37;;;0.37;;
10418;SDS011;5256;48.728;9.140;2023-04-06T14:58:37;0.30;;;0.30;;
10418;SDS011;5256;48.728;9.140;2023-04-06T15:01:03;0.30;;;0.30;;